Time;durP1;ratioP1;P1;durP2;ratioP2;P2;SDS_P1;SDS_P2;PMS_P1;PMS_P2;Temp;Humidity;BMP_temperature;BMP_pressure;BME280_temperature;BME280_humidity;BME280_pressure;Samples;Min_cycle;Max_cycle;Signal;HPM_P1;HPM_P2
2023/07/29 00:02:00;;;;;;;4.78;3.45;;;;;;;16.36;100.00;100556.00;5024861;28;20184;-46
2023/07/29 00:04:25;;;;;;;4.25;3.85;;;;;;;16.25;100.00;100547.75;5029845;28;20649;-48
2023/07/29 00:06:51;;;;;;;3.35;3.05;;;;;;;16.36;100.00;100550.59;5020214;28;20342;-51
2023/07/29 00:09:16;;;;;;;3.53;3.22;;;;;;;16.35;100.00;100551.56;5031612;28;20188;-45
2023/07/29 00:11:42;;;;;;;3.50;3.20;;;;;;;16.33;100.00;100558.03;5022804;28;20629;-48
2023/07/29 00:14:07;;;;;;;3.78;3.47;;;;;;;16.30;100.00;100559.13;5027045;28;20191;-52
2023/07/29 00:16:32;;;;;;;5.47;4.82;;;;;;;16.20;100.00;100560.69;5028710;28;20236;-48
2023/07/29 00:18:58;;;;;;;4.45;4.05;;;;;;;16.22;100.00;100562.34;5028459;28;20267;-48
2023/07/29 00:21:23;;;;;;;5.28;4.60;;;;;;;16.24;100.00;100563.09;5028089;28;20196;-52
2023/07/29 00:23:49;;;;;;;5.13;4.63;;;;;;;16.20;100.00;100557.97;5028232;28;20561;-47
2023/07/29 00:26:14;;;;;;;4.32;3.90;;;;;;;16.26;100.00;100560.28;5024904;28;20200;-46
2023/07/29 00:28:40;;;;;;;5.15;3.60;;;;;;;16.27;100.00;100564.75;5034443;28;20179;-51
2023/07/29 00:31:05;;;;;;;4.75;4.32;;;;;;;16.04;100.00;100564.41;5028607;28;20180;-46
2023/07/29 00:33:33;;;;;;;4.85;4.40;;;;;;;16.20;100.00;100553.47;5024014;28;20680;-48
2023/07/29 00:36:01;;;;;;;7.18;5.63;;;;;;;16.16;100.00;100548.34;5030631;28;20282;-53
2023/07/29 00:38:27;;;;;;;4.78;4.38;;;;;;;16.19;100.00;100548.16;5034119;28;20245;-47
2023/07/29 00:40:53;;;;;;;4.97;4.40;;;;;;;16.09;100.00;100549.72;5031525;28;20184;-47
2023/07/29 00:43:19;;;;;;;5.18;4.68;;;;;;;16.24;100.00;100541.47;5034764;28;20198;-51
2023/07/29 00:45:45;;;;;;;5.28;4.88;;;;;;;15.98;100.00;100535.09;5024090;28;20184;-46
2023/07/29 00:48:10;;;;;;;5.28;4.78;;;;;;;16.10;100.00;100536.13;5019088;28;20658;-46
2023/07/29 00:50:37;;;;;;;5.80;5.25;;;;;;;16.00;100.00;100529.56;5031645;28;20183;-47
2023/07/29 00:53:02;;;;;;;4.32;4.03;;;;;;;16.12;100.00;100525.22;5036288;28;20227;-50
2023/07/29 00:55:28;;;;;;;4.57;4.18;;;;;;;16.21;100.00;100535.41;5030313;28;20196;-50
2023/07/29 00:57:54;;;;;;;5.28;4.78;;;;;;;16.20;100.00;100531.84;5022113;28;20625;-48
2023/07/29 01:00:21;;;;;;;5.68;4.57;;;;;;;16.06;100.00;100521.94;5034059;28;20219;-47
2023/07/29 01:02:46;;;;;;;4.70;3.97;;;;;;;16.08;100.00;100527.25;5031998;28;20661;-50
2023/07/29 01:05:14;;;;;;;3.38;3.08;;;;;;;16.17;100.00;100515.81;5030372;28;20287;-47
2023/07/29 01:08:09;;;;;;;4.28;3.72;;;;;;;16.22;100.00;100516.41;5031548;28;20682;-45
2023/07/29 01:11:01;;;;;;;4.68;4.28;;;;;;;16.11;100.00;100520.75;5032547;28;20203;-46
2023/07/29 01:13:35;;;;;;;5.30;4.57;;;;;;;15.97;100.00;100522.53;5032506;28;20672;-44
2023/07/29 01:16:09;;;;;;;4.90;4.50;;;;;;;15.97;100.00;100516.28;5033536;28;20199;-50
2023/07/29 01:18:38;;;;;;;4.28;3.85;;;;;;;16.08;100.00;100513.72;5023180;28;20238;-45
2023/07/29 01:21:08;;;;;;;4.45;4.13;;;;;;;16.12;100.00;100511.69;5035430;28;20603;-47
2023/07/29 01:23:34;;;;;;;3.92;3.63;;;;;;;16.11;100.00;100509.94;5017239;28;20189;-49
2023/07/29 01:26:01;;;;;;;4.55;3.90;;;;;;;15.93;100.00;100498.53;5024989;28;20227;-47
2023/07/29 01:28:27;;;;;;;5.28;3.75;;;;;;;15.81;100.00;100500.22;5037844;28;20242;-47
2023/07/29 01:31:19;;;;;;;3.92;3.60;;;;;;;15.73;100.00;100502.53;5032151;28;20553;-45
2023/07/29 01:34:24;;;;;;;4.53;4.13;;;;;;;15.75;100.00;100508.72;5028942;28;20200;-45
2023/07/29 01:36:52;;;;;;;3.47;3.17;;;;;;;15.86;100.00;100500.78;5018965;28;20249;-45
2023/07/29 01:39:22;;;;;;;4.35;3.72;;;;;;;15.83;100.00;100501.84;5031080;28;20194;-45
2023/07/29 01:41:48;;;;;;;5.82;4.35;;;;;;;15.67;100.00;100503.75;5029349;28;20657;-45
2023/07/29 01:44:14;;;;;;;4.80;4.30;;;;;;;15.78;100.00;100493.16;5031096;28;20184;-44
2023/07/29 01:46:40;;;;;;;5.25;4.60;;;;;;;15.89;100.00;100503.25;5021722;28;20212;-45
2023/07/29 01:49:06;;;;;;;5.38;4.00;;;;;;;15.81;100.00;100500.22;5029975;28;20176;-45
2023/07/29 01:51:32;;;;;;;4.13;3.60;;;;;;;15.79;100.00;100507.56;5030043;28;20707;-44
2023/07/29 01:53:59;;;;;;;4.68;3.90;;;;;;;15.68;100.00;100512.72;5030302;28;20164;-48
2023/07/29 01:56:25;;;;;;;6.85;5.10;;;;;;;15.87;100.00;100497.09;5029062;28;20195;-48
2023/07/29 01:58:54;;;;;;;6.35;5.25;;;;;;;15.62;100.00;100514.00;5028933;28;20218;-46
2023/07/29 02:01:20;;;;;;;5.15;4.70;;;;;;;15.60;100.00;100507.84;5028724;28;20220;-45
2023/07/29 02:03:46;;;;;;;5.68;5.18;;;;;;;15.45;100.00;100506.97;5028611;28;20202;-50
2023/07/29 02:06:11;;;;;;;4.95;4.45;;;;;;;15.53;100.00;100495.69;5028199;28;20460;-43
2023/07/29 02:08:40;;;;;;;5.75;5.25;;;;;;;15.43;100.00;100496.25;5028495;28;20180;-46
2023/07/29 02:11:06;;;;;;;8.45;5.85;;;;;;;15.43;100.00;100503.50;5028509;28;20176;-42
2023/07/29 02:13:32;;;;;;;6.75;5.70;;;;;;;15.37;100.00;100504.78;5024187;28;20204;-43
2023/07/29 02:15:57;;;;;;;5.70;5.20;;;;;;;15.43;100.00;100506.19;5026487;28;20200;-46
2023/07/29 02:18:23;;;;;;;5.25;4.75;;;;;;;15.51;100.00;100495.78;5028528;28;20584;-49
2023/07/29 02:20:49;;;;;;;7.60;6.05;;;;;;;15.47;100.00;100507.75;5028670;28;20391;-42
2023/07/29 02:23:16;;;;;;;6.32;5.10;;;;;;;15.48;100.00;100508.59;5029623;28;20207;-43
2023/07/29 02:25:42;;;;;;;6.90;5.70;;;;;;;15.48;100.00;100506.78;5029884;28;20197;-43
2023/07/29 02:28:08;;;;;;;6.38;5.78;;;;;;;15.42;100.00;100499.09;5028415;28;20249;-47
2023/07/29 02:30:33;;;;;;;6.60;5.32;;;;;;;15.52;100.00;100502.03;5029248;28;20202;-43
2023/07/29 02:33:01;;;;;;;6.13;5.53;;;;;;;15.45;100.00;100479.97;5029458;28;20275;-42
2023/07/29 02:35:27;;;;;;;6.30;5.70;;;;;;;15.38;100.00;100484.03;5029151;28;20202;-46
2023/07/29 02:37:52;;;;;;;7.10;4.93;;;;;;;15.48;100.00;100487.00;5028058;28;20214;-45
2023/07/29 02:40:20;;;;;;;6.35;5.75;;;;;;;15.42;100.00;100486.44;5027824;28;20200;-48
2023/07/29 02:42:46;;;;;;;5.63;5.13;;;;;;;15.45;100.00;100486.22;5025727;28;20214;-41
2023/07/29 02:45:12;;;;;;;6.20;5.60;;;;;;;15.52;100.00;100486.72;5027773;28;20259;-43
2023/07/29 02:47:38;;;;;;;7.10;6.07;;;;;;;15.54;100.00;100486.63;5026069;28;20614;-43
2023/07/29 02:50:04;;;;;;;9.02;6.72;;;;;;;15.61;100.00;100477.16;5029240;28;20222;-47
2023/07/29 02:52:30;;;;;;;7.65;6.85;;;;;;;15.52;100.00;100478.59;5028488;28;20195;-45
2023/07/29 02:54:55;;;;;;;5.80;5.20;;;;;;;15.66;100.00;100473.19;5027615;28;20207;-49
2023/07/29 02:57:20;;;;;;;7.43;6.05;;;;;;;15.62;100.00;100471.66;5028721;28;20627;-42
2023/07/29 02:59:46;;;;;;;6.47;5.88;;;;;;;15.62;100.00;100468.94;5026507;28;20336;-45
2023/07/29 03:02:11;;;;;;;6.22;5.60;;;;;;;15.66;100.00;100475.88;5027188;28;20183;-48
2023/07/29 03:04:37;;;;;;;11.52;6.40;;;;;;;15.55;100.00;100475.72;5028061;28;20578;-48
2023/07/29 03:07:03;;;;;;;9.18;6.57;;;;;;;15.43;100.00;100474.66;5030449;28;20219;-43
2023/07/29 03:09:29;;;;;;;7.15;6.35;;;;;;;15.41;100.00;100467.63;5026367;28;20621;-45
2023/07/29 03:11:54;;;;;;;7.70;6.43;;;;;;;15.35;100.00;100479.72;5033453;28;20171;-48
2023/07/29 03:14:21;;;;;;;7.80;6.38;;;;;;;15.42;100.00;100470.25;5027690;28;20532;-43
2023/07/29 03:16:46;;;;;;;9.30;7.00;;;;;;;15.43;100.00;100479.22;5027727;28;20338;-42
2023/07/29 03:19:12;;;;;;;9.45;6.65;;;;;;;15.47;100.00;100477.19;5027296;28;20255;-44
2023/07/29 03:21:38;;;;;;;11.02;7.03;;;;;;;15.40;100.00;100477.56;5025766;28;20172;-43
2023/07/29 03:24:03;;;;;;;9.85;6.85;;;;;;;15.31;100.00;100486.28;5028625;28;20221;-45
2023/07/29 03:26:29;;;;;;;7.40;6.65;;;;;;;15.33;100.00;100494.28;5022890;28;20188;-43
2023/07/29 03:28:55;;;;;;;9.75;6.53;;;;;;;15.35;100.00;100490.50;5030193;28;20178;-46
2023/07/29 03:31:20;;;;;;;6.40;5.80;;;;;;;15.43;100.00;100482.75;5028965;28;20172;-44
2023/07/29 03:33:46;;;;;;;7.65;5.95;;;;;;;15.31;100.00;100477.31;5026101;28;20200;-46
2023/07/29 03:36:14;;;;;;;8.07;5.30;;;;;;;15.36;100.00;100481.44;5025887;28;20202;-42
2023/07/29 03:38:40;;;;;;;9.43;6.55;;;;;;;15.41;100.00;100483.84;5026999;28;20187;-42
2023/07/29 03:41:08;;;;;;;7.60;6.22;;;;;;;15.35;100.00;100485.09;5026712;28;20562;-42
2023/07/29 03:43:34;;;;;;;6.95;6.18;;;;;;;15.41;100.00;100473.03;5024801;28;20183;-44
2023/07/29 03:46:01;;;;;;;7.60;6.43;;;;;;;15.37;100.00;100482.28;5028182;28;20188;-45
2023/07/29 03:48:26;;;;;;;8.65;7.05;;;;;;;15.36;100.00;100486.81;5027943;28;20238;-48
2023/07/29 03:50:52;;;;;;;8.10;6.35;;;;;;;15.36;100.00;100496.78;5025923;28;20175;-42
2023/07/29 03:53:17;;;;;;;9.13;7.28;;;;;;;15.42;100.00;100493.69;5025645;28;20163;-47
2023/07/29 03:55:44;;;;;;;11.38;8.00;;;;;;;15.40;100.00;100472.19;5025975;28;20234;-48
2023/07/29 03:58:09;;;;;;;8.77;7.60;;;;;;;15.38;100.00;100473.25;5027624;28;20547;-51
2023/07/29 04:00:35;;;;;;;9.18;7.68;;;;;;;15.52;100.00;100480.44;5019502;28;20192;-44
2023/07/29 04:03:00;;;;;;;12.90;8.43;;;;;;;15.57;100.00;100484.59;5028019;28;20249;-43
2023/07/29 04:05:26;;;;;;;13.32;9.75;;;;;;;15.63;100.00;100484.22;5029346;28;20175;-47
2023/07/29 04:07:53;;;;;;;18.48;11.68;;;;;;;15.63;100.00;100484.22;5030530;28;20199;-42
2023/07/29 04:10:19;;;;;;;12.43;10.10;;;;;;;15.74;100.00;100478.13;5028971;28;20203;-42
2023/07/29 04:12:44;;;;;;;9.15;7.88;;;;;;;15.79;100.00;100488.63;5024672;28;20173;-47
2023/07/29 04:15:10;;;;;;;14.25;9.70;;;;;;;15.75;100.00;100487.09;5028113;28;20180;-43
2023/07/29 04:17:36;;;;;;;13.15;9.48;;;;;;;15.71;100.00;100491.81;5030152;28;20200;-43
2023/07/29 04:20:03;;;;;;;13.85;9.75;;;;;;;15.79;100.00;100488.63;5019003;28;20203;-49
2023/07/29 04:22:32;;;;;;;18.23;12.77;;;;;;;15.71;100.00;100486.44;5029445;28;20715;-45
2023/07/29 04:24:58;;;;;;;18.40;12.48;;;;;;;15.72;100.00;100471.06;5030149;28;20277;-44
2023/07/29 04:27:24;;;;;;;12.90;10.00;;;;;;;15.75;100.00;100462.78;5025874;28;20208;-46
2023/07/29 04:29:49;;;;;;;15.30;11.05;;;;;;;15.80;100.00;100477.72;5029607;28;20168;-49
2023/07/29 04:32:15;;;;;;;21.30;13.60;;;;;;;15.70;100.00;100476.56;5031078;28;20175;-44
2023/07/29 04:34:41;;;;;;;16.80;12.50;;;;;;;15.73;100.00;100484.50;5025652;28;20532;-43
2023/07/29 04:37:07;;;;;;;20.05;12.93;;;;;;;15.64;100.00;100518.34;5031945;28;20696;-45
2023/07/29 04:39:33;;;;;;;26.33;14.30;;;;;;;15.62;100.00;100506.75;5031362;28;20203;-46
2023/07/29 04:41:58;;;;;;;23.08;15.15;;;;;;;15.66;100.00;100505.59;5030466;28;20630;-46
2023/07/29 04:44:24;;;;;;;21.50;14.30;;;;;;;15.72;100.00;100504.38;5026721;28;20280;-43
2023/07/29 04:46:49;;;;;;;27.38;15.27;;;;;;;15.62;100.00;100514.00;5032236;28;20299;-45
2023/07/29 04:49:15;;;;;;;25.00;15.15;;;;;;;15.58;100.00;100491.72;5032005;28;20184;-43
2023/07/29 04:51:41;;;;;;;24.33;14.77;;;;;;;15.57;100.00;100481.91;5030286;28;20180;-47
2023/07/29 04:54:06;;;;;;;22.02;14.55;;;;;;;15.59;100.00;100477.25;5031925;28;20183;-43
2023/07/29 04:56:32;;;;;;;19.42;12.80;;;;;;;15.64;100.00;100480.53;5028851;28;20282;-45
2023/07/29 04:58:57;;;;;;;19.08;13.40;;;;;;;15.71;100.00;100496.34;5028708;28;20262;-46
2023/07/29 05:01:23;;;;;;;19.27;14.48;;;;;;;15.72;100.00;100490.88;5031544;28;20215;-48
2023/07/29 05:03:48;;;;;;;21.80;14.57;;;;;;;15.71;100.00;100481.03;5030219;28;20215;-45
2023/07/29 05:06:14;;;;;;;22.90;15.15;;;;;;;15.61;100.00;100471.75;5031435;28;20200;-44
2023/07/29 05:08:39;;;;;;;25.00;15.32;;;;;;;15.55;100.00;100473.03;5030395;28;20172;-43
2023/07/29 05:11:05;;;;;;;21.20;14.88;;;;;;;15.51;100.00;100466.09;5031351;28;20286;-42
2023/07/29 05:13:30;;;;;;;23.92;14.73;;;;;;;15.62;100.00;100487.84;5029859;28;20198;-46
2023/07/29 05:15:56;;;;;;;22.30;14.63;;;;;;;15.69;100.00;100487.47;5009501;28;20734;-45
2023/07/29 05:18:23;;;;;;;19.05;13.20;;;;;;;15.75;100.00;100485.25;5034162;28;20279;-49
2023/07/29 05:20:49;;;;;;;23.95;15.43;;;;;;;15.72;100.00;100485.47;5031298;28;20274;-45
2023/07/29 05:23:14;;;;;;;21.83;13.70;;;;;;;15.78;100.00;100492.28;5032134;28;20618;-44
2023/07/29 05:25:41;;;;;;;23.33;15.15;;;;;;;15.82;100.00;100491.13;5027783;28;20217;-43
2023/07/29 05:28:06;;;;;;;21.20;13.80;;;;;;;15.93;100.00;100502.09;5035752;28;20180;-45
2023/07/29 05:30:33;;;;;;;20.83;14.02;;;;;;;15.91;100.00;100492.34;5030607;28;20635;-42
2023/07/29 05:33:00;;;;;;;19.50;13.40;;;;;;;16.00;100.00;100497.16;5022393;28;20172;-42
2023/07/29 05:35:26;;;;;;;19.83;13.50;;;;;;;15.95;100.00;100492.06;5032100;28;20184;-48
2023/07/29 05:37:51;;;;;;;15.95;13.00;;;;;;;16.12;100.00;100492.78;5033161;28;20184;-41
2023/07/29 05:40:20;;;;;;;21.00;13.75;;;;;;;16.09;100.00;100488.41;5021354;28;20192;-43
2023/07/29 05:42:46;;;;;;;16.20;12.07;;;;;;;16.20;100.00;100483.19;5029263;28;20184;-42
2023/07/29 05:45:11;;;;;;;20.92;12.85;;;;;;;16.19;100.00;100486.84;5025472;28;20172;-43
2023/07/29 05:47:37;;;;;;;14.70;11.10;;;;;;;16.21;100.00;100484.06;5029003;28;20204;-43
2023/07/29 05:50:04;;;;;;;14.07;11.55;;;;;;;16.29;100.00;100487.09;5033950;28;20182;-44
2023/07/29 05:52:33;;;;;;;13.23;10.60;;;;;;;16.35;100.00;100483.97;5030352;28;20215;-43
2023/07/29 05:54:58;;;;;;;17.52;11.90;;;;;;;16.34;100.00;100489.50;5027206;28;20168;-42
2023/07/29 05:57:24;;;;;;;13.82;11.63;;;;;;;16.43;100.00;100476.22;5036325;28;20214;-43
2023/07/29 05:59:49;;;;;;;15.27;11.43;;;;;;;16.43;100.00;100478.03;5025441;28;20648;-46
2023/07/29 06:02:15;;;;;;;14.20;11.52;;;;;;;16.42;100.00;100477.19;5035015;28;20172;-47
2023/07/29 06:04:40;;;;;;;14.07;11.35;;;;;;;16.52;100.00;100472.00;5028612;28;20184;-45
2023/07/29 06:07:06;;;;;;;13.70;10.75;;;;;;;16.71;100.00;100459.94;5029811;28;20682;-42
2023/07/29 06:09:32;;;;;;;12.60;10.40;;;;;;;16.74;100.00;100459.69;5025154;28;20561;-42
2023/07/29 06:11:58;;;;;;;13.15;10.35;;;;;;;16.77;100.00;100460.38;5011434;28;20265;-48
2023/07/29 06:14:23;;;;;;;11.57;10.23;;;;;;;16.85;100.00;100460.69;5009898;28;20227;-42
2023/07/29 06:16:49;;;;;;;11.43;10.02;;;;;;;17.26;100.00;100451.47;5009789;28;20208;-41
2023/07/29 06:19:14;;;;;;;11.45;10.27;;;;;;;17.57;100.00;100460.06;5011004;28;20330;-46
2023/07/29 06:21:40;;;;;;;9.32;8.43;;;;;;;17.64;100.00;100458.63;5022036;28;20188;-45
2023/07/29 06:24:06;;;;;;;9.48;8.57;;;;;;;17.83;100.00;100443.75;5028768;28;20298;-42
2023/07/29 06:26:31;;;;;;;9.40;8.50;;;;;;;18.07;100.00;100450.03;5037855;28;20199;-43
2023/07/29 06:28:57;;;;;;;7.93;7.22;;;;;;;18.09;100.00;100445.38;5050468;28;20167;-46
2023/07/29 06:31:22;;;;;;;6.68;6.07;;;;;;;18.41;100.00;100433.91;5050766;28;20594;-43
2023/07/29 06:33:48;;;;;;;7.30;6.60;;;;;;;18.43;100.00;100433.78;5050381;28;20188;-44
2023/07/29 06:36:13;;;;;;;6.32;5.70;;;;;;;18.52;100.00;100422.22;5032798;28;20199;-44
2023/07/29 06:38:39;;;;;;;4.93;4.53;;;;;;;18.64;100.00;100420.41;5030604;28;20191;-43
2023/07/29 06:41:05;;;;;;;4.43;4.10;;;;;;;18.74;100.00;100419.56;5030559;28;20215;-43
2023/07/29 06:43:30;;;;;;;5.07;4.57;;;;;;;18.57;100.00;100417.28;5038288;28;20593;-45
2023/07/29 06:45:56;;;;;;;4.53;4.00;;;;;;;18.85;100.00;100405.16;5030284;28;20188;-48
2023/07/29 06:48:22;;;;;;;5.15;4.50;;;;;;;18.98;100.00;100398.72;5030249;28;20526;-44
2023/07/29 06:50:47;;;;;;;5.10;4.60;;;;;;;19.14;100.00;100401.94;5045484;28;20540;-42
2023/07/29 06:53:13;;;;;;;4.88;4.38;;;;;;;18.87;100.00;100386.91;5030636;28;20573;-43
2023/07/29 06:55:39;;;;;;;4.47;4.07;;;;;;;19.04;100.00;100387.38;5029757;28;20202;-47
2023/07/29 06:58:04;;;;;;;5.50;4.30;;;;;;;19.02;100.00;100389.34;5028877;28;20206;-49
2023/07/29 07:00:30;;;;;;;4.80;4.38;;;;;;;18.87;100.00;100381.47;5040267;28;20222;-43
2023/07/29 07:02:55;;;;;;;5.45;5.00;;;;;;;18.88;100.00;100377.75;5044049;28;20163;-45
2023/07/29 07:05:21;;;;;;;5.15;4.68;;;;;;;18.83;100.00;100380.00;5029312;28;20195;-48
2023/07/29 07:07:46;;;;;;;5.22;4.82;;;;;;;18.89;100.00;100374.06;5029878;28;20214;-43
2023/07/29 07:10:14;;;;;;;4.85;4.40;;;;;;;18.81;100.00;100371.09;5032701;28;20579;-44
2023/07/29 07:12:39;;;;;;;5.82;5.32;;;;;;;18.77;100.00;100369.59;5046197;28;20273;-49
2023/07/29 07:15:05;;;;;;;5.18;4.72;;;;;;;18.85;100.00;100378.00;5049247;28;20697;-43
2023/07/29 07:17:31;;;;;;;6.53;6.00;;;;;;;18.65;100.00;100374.16;5033128;28;20192;-43
2023/07/29 07:19:56;;;;;;;6.85;6.25;;;;;;;18.71;100.00;100380.91;5038198;28;20194;-44
2023/07/29 07:22:22;;;;;;;6.47;5.97;;;;;;;18.81;100.00;100376.53;5029999;28;20275;-42
2023/07/29 07:24:47;;;;;;;7.47;6.72;;;;;;;18.69;100.00;100378.34;5029985;28;20226;-41
2023/07/29 07:27:13;;;;;;;7.78;7.10;;;;;;;18.81;100.00;100373.81;5026071;28;20217;-43
2023/07/29 07:29:38;;;;;;;7.50;6.90;;;;;;;18.86;100.00;100376.16;5029251;28;20192;-43
2023/07/29 07:32:04;;;;;;;8.63;7.90;;;;;;;18.80;100.00;100368.50;5013299;28;20160;-43
2023/07/29 07:34:29;;;;;;;9.80;8.77;;;;;;;18.87;100.00;100367.91;5045792;28;20203;-45
2023/07/29 07:36:55;;;;;;;10.35;9.45;;;;;;;18.81;100.00;100362.97;5029186;28;20194;-46
2023/07/29 07:39:20;;;;;;;8.68;7.97;;;;;;;19.05;100.00;100356.53;5029253;28;20182;-44
2023/07/29 07:41:46;;;;;;;12.00;10.90;;;;;;;18.82;100.00;100348.38;5029735;28;20509;-44
2023/07/29 07:44:15;;;;;;;11.95;10.85;;;;;;;18.90;100.00;100345.94;5029067;28;20214;-47
2023/07/29 07:46:41;;;;;;;11.50;10.50;;;;;;;19.00;100.00;100350.59;5029398;28;20192;-43
2023/07/29 07:49:07;;;;;;;9.77;8.88;;;;;;;19.14;100.00;100355.78;5028302;28;20172;-41
2023/07/29 07:51:32;;;;;;;13.70;12.43;;;;;;;18.92;100.00;100353.94;5029381;28;20724;-45
2023/07/29 07:53:58;;;;;;;12.38;11.23;;;;;;;19.16;100.00;100352.94;5029129;28;20529;-46
2023/07/29 07:56:25;;;;;;;13.10;11.85;;;;;;;19.37;100.00;100350.31;5029466;28;20246;-43
2023/07/29 07:58:52;;;;;;;13.07;11.82;;;;;;;19.41;100.00;100359.94;5035811;28;20167;-43
2023/07/29 08:01:17;;;;;;;12.32;10.88;;;;;;;19.44;100.00;100359.66;5029399;28;20508;-44
2023/07/29 08:03:43;;;;;;;13.18;12.07;;;;;;;19.40;100.00;100358.22;5029722;28;20547;-47
2023/07/29 08:06:08;;;;;;;12.38;11.07;;;;;;;19.41;100.00;100349.91;5029268;28;20573;-42
2023/07/29 08:08:34;;;;;;;13.95;12.55;;;;;;;19.16;100.00;100353.81;5029662;28;20184;-44
2023/07/29 08:11:00;;;;;;;13.07;11.85;;;;;;;19.12;100.00;100352.31;5039896;28;20176;-48
2023/07/29 08:13:25;;;;;;;13.85;12.65;;;;;;;19.12;100.00;100355.03;5029479;28;20176;-48
2023/07/29 08:15:53;;;;;;;13.75;12.45;;;;;;;19.17;100.00;100358.22;5039788;28;20232;-42
2023/07/29 08:18:19;;;;;;;13.40;12.10;;;;;;;19.26;100.00;100357.50;5035503;28;20172;-43
2023/07/29 08:20:58;;;;;;;12.73;11.63;;;;;;;19.23;100.00;100352.31;5025234;28;20574;-45
2023/07/29 08:23:28;;;;;;;11.75;10.65;;;;;;;19.51;100.00;100361.75;5044510;28;20190;-47
2023/07/29 08:25:56;;;;;;;11.25;10.20;;;;;;;19.61;100.00;100360.97;5047161;28;20190;-42
2023/07/29 08:28:24;;;;;;;10.63;9.60;;;;;;;19.72;100.00;100360.97;5029659;28;20172;-44
2023/07/29 08:30:49;;;;;;;9.98;9.07;;;;;;;19.77;100.00;100350.59;5012795;28;20235;-41
2023/07/29 08:33:15;;;;;;;10.55;9.57;;;;;;;19.65;100.00;100355.16;5034391;28;20582;-45
2023/07/29 08:35:40;;;;;;;10.50;9.60;;;;;;;19.61;100.00;100350.09;5027460;28;20238;-47
2023/07/29 08:38:06;;;;;;;9.70;8.90;;;;;;;19.82;100.00;100363.78;5031937;28;20236;-43
2023/07/29 08:40:35;;;;;;;9.68;8.88;;;;;;;19.58;100.00;100345.81;5024759;28;20291;-43
2023/07/29 08:43:04;;;;;;;9.38;8.60;;;;;;;19.87;100.00;100337.06;5028818;28;20195;-43
2023/07/29 08:45:36;;;;;;;9.57;8.77;;;;;;;19.70;100.00;100339.38;5029103;28;20190;-43
2023/07/29 08:48:05;;;;;;;9.00;8.20;;;;;;;19.94;100.00;100339.16;5028104;28;20554;-43
2023/07/29 08:50:32;;;;;;;7.95;7.25;;;;;;;20.29;100.00;100332.53;5031462;28;20700;-43
2023/07/29 08:53:00;;;;;;;8.95;7.60;;;;;;;20.61;100.00;100328.84;5028829;28;20203;-44
2023/07/29 08:55:26;;;;;;;8.10;7.40;;;;;;;20.63;100.00;100320.56;5029474;28;20200;-46
2023/07/29 08:57:53;;;;;;;8.73;7.30;;;;;;;20.38;100.00;100326.28;5036905;28;20203;-45
2023/07/29 09:00:19;;;;;;;7.85;7.03;;;;;;;20.51;100.00;100309.72;5025942;28;20208;-43
2023/07/29 09:02:45;;;;;;;7.10;6.50;;;;;;;20.78;100.00;100316.47;5029234;28;20168;-43
2023/07/29 09:05:10;;;;;;;7.28;6.68;;;;;;;20.65;100.00;100315.84;5030838;28;20270;-46
2023/07/29 09:07:36;;;;;;;7.65;6.70;;;;;;;20.81;100.00;100304.44;5023007;28;20200;-43
2023/07/29 09:10:02;;;;;;;7.38;6.75;;;;;;;20.88;100.00;100300.16;5038367;28;20175;-41
2023/07/29 09:12:28;;;;;;;7.13;6.55;;;;;;;20.71;100.00;100296.25;5031151;28;20696;-43
2023/07/29 09:14:54;;;;;;;7.43;6.20;;;;;;;20.86;100.00;100288.53;5037609;28;20183;-44
2023/07/29 09:17:21;;;;;;;6.43;5.88;;;;;;;20.83;100.00;100284.22;5023260;28;20530;-43
2023/07/29 09:19:49;;;;;;;7.03;5.60;;;;;;;21.25;100.00;100297.66;5029564;28;20191;-49
2023/07/29 09:22:20;;;;;;;6.88;6.28;;;;;;;21.07;100.00;100289.31;5026648;28;20293;-43
2023/07/29 09:24:47;;;;;;;6.88;6.15;;;;;;;20.99;100.00;100284.59;5028831;28;20542;-42
2023/07/29 09:27:24;;;;;;;7.63;5.97;;;;;;;21.39;100.00;100288.25;5027459;28;20211;-44
2023/07/29 09:29:50;;;;;;;6.43;5.82;;;;;;;21.23;100.00;100277.03;5037814;28;20289;-47
2023/07/29 09:32:23;;;;;;;7.95;5.90;;;;;;;21.23;100.00;100280.63;5033670;28;20194;-42
2023/07/29 09:34:49;;;;;;;7.97;6.25;;;;;;;21.15;100.00;100280.47;5029845;28;20179;-43
2023/07/29 09:37:21;;;;;;;6.53;5.93;;;;;;;21.03;100.00;100279.69;5031862;28;20202;-45
2023/07/29 09:39:50;;;;;;;6.90;6.22;;;;;;;20.75;100.00;100274.06;5029896;28;20219;-48
2023/07/29 09:42:18;;;;;;;5.78;5.22;;;;;;;21.04;100.00;100281.44;5040993;28;20167;-43
2023/07/29 09:44:44;;;;;;;7.00;5.30;;;;;;;20.81;100.00;100279.94;5021901;28;20176;-42
2023/07/29 09:47:09;;;;;;;5.93;4.97;;;;;;;20.69;100.00;100290.94;5029753;28;20214;-43
2023/07/29 09:49:36;;;;;;;7.00;5.60;;;;;;;20.53;100.00;100276.91;5029047;28;20180;-47
2023/07/29 09:52:03;;;;;;;6.10;5.50;;;;;;;20.39;100.00;100275.44;5032550;28;20191;-44
2023/07/29 09:54:30;;;;;;;6.38;4.88;;;;;;;20.50;100.00;100282.66;5026638;28;20168;-43
2023/07/29 09:56:56;;;;;;;6.85;5.20;;;;;;;20.41;100.00;100273.44;5029597;28;20192;-44
2023/07/29 09:59:23;;;;;;;6.15;5.65;;;;;;;20.50;100.00;100282.66;5034280;28;20186;-44
2023/07/29 10:01:50;;;;;;;4.70;4.35;;;;;;;20.95;100.00;100283.13;5038026;28;20266;-44
2023/07/29 10:04:17;;;;;;;4.70;4.30;;;;;;;21.37;100.00;100266.56;5030376;28;20177;-47
2023/07/29 10:06:42;;;;;;;4.60;4.03;;;;;;;21.54;100.00;100264.19;5025532;28;20294;-47
2023/07/29 10:09:11;;;;;;;3.58;3.38;;;;;;;22.12;100.00;100261.38;5026077;28;20602;-50
2023/07/29 10:11:37;;;;;;;4.68;3.38;;;;;;;22.28;100.00;100249.91;5028723;28;20183;-44
2023/07/29 10:14:03;;;;;;;3.65;3.35;;;;;;;22.54;100.00;100246.47;5031451;28;20187;-44
2023/07/29 10:16:29;;;;;;;2.92;2.63;;;;;;;22.91;97.95;100242.84;5031115;28;20527;-47
2023/07/29 10:18:56;;;;;;;3.60;3.10;;;;;;;22.62;93.68;100249.31;5029090;28;20168;-43
2023/07/29 10:21:23;;;;;;;2.53;2.33;;;;;;;22.71;90.67;100248.41;5029173;28;20704;-43
2023/07/29 10:23:53;;;;;;;3.00;2.60;;;;;;;22.80;88.92;100225.63;5030392;28;20171;-44
2023/07/29 10:26:20;;;;;;;3.50;3.05;;;;;;;22.92;87.85;100230.91;5032906;28;20207;-43
2023/07/29 10:28:47;;;;;;;3.30;3.00;;;;;;;22.80;87.33;100230.25;5028625;28;20178;-46
2023/07/29 10:31:16;;;;;;;2.45;2.28;;;;;;;22.66;86.46;100222.59;5029942;28;20191;-43
2023/07/29 10:33:42;;;;;;;3.45;2.53;;;;;;;22.68;87.26;100229.59;5028408;28;20962;-43
2023/07/29 10:36:09;;;;;;;2.65;2.40;;;;;;;22.88;87.36;100229.50;5029743;28;20760;-48
2023/07/29 10:38:35;;;;;;;2.40;2.30;;;;;;;23.20;86.02;100210.75;5028527;28;20199;-46
2023/07/29 10:41:00;;;;;;;2.70;2.13;;;;;;;22.86;84.34;100210.53;5026169;28;20211;-47
2023/07/29 10:43:33;;;;;;;2.10;2.00;;;;;;;23.34;82.48;100209.34;5029416;28;20176;-43
2023/07/29 10:46:22;;;;;;;4.30;2.45;;;;;;;23.38;80.61;100191.63;5026724;28;20230;-47
2023/07/29 10:48:50;;;;;;;2.28;2.00;;;;;;;23.17;80.67;100191.91;5028999;28;20662;-45
2023/07/29 10:51:32;;;;;;;3.67;2.30;;;;;;;23.06;80.68;100194.03;5028469;28;20176;-44
2023/07/29 10:54:03;;;;;;;2.78;2.58;;;;;;;23.16;79.71;100190.22;5028320;28;20662;-42
2023/07/29 10:56:36;;;;;;;1.77;1.67;;;;;;;23.12;78.77;100187.94;5029135;28;20214;-44
2023/07/29 10:59:11;;;;;;;4.50;2.30;;;;;;;23.14;77.95;100184.03;5028145;28;20183;-44
2023/07/29 11:01:39;;;;;;;2.33;2.13;;;;;;;23.26;77.31;100178.34;5026188;28;20782;-44
2023/07/29 11:04:20;;;;;;;1.85;1.73;;;;;;;23.67;75.89;100165.88;5023976;28;20752;-43
2023/07/29 11:07:04;;;;;;;1.90;1.63;;;;;;;23.83;74.68;100159.66;5027606;28;20289;-47
2023/07/29 11:09:51;;;;;;;1.40;1.30;;;;;;;23.70;72.24;100151.84;5028686;28;20194;-47
2023/07/29 11:12:50;;;;;;;1.40;1.30;;;;;;;23.50;70.87;100144.88;5026728;28;20175;-46
2023/07/29 11:15:21;;;;;;;1.77;1.67;;;;;;;23.50;71.33;100144.88;5027506;28;20171;-44